createdAt,value
2022-12-05T00:01:34.678Z,10.63
2022-12-05T00:04:06.471Z,11.68
2022-12-05T00:06:35.374Z,10.65
2022-12-05T00:09:05.342Z,10.43
2022-12-05T00:11:36.270Z,8.93
2022-12-05T00:14:06.920Z,9.20
2022-12-05T00:16:38.526Z,8.08
2022-12-05T00:19:08.675Z,9.25
2022-12-05T00:21:37.335Z,9.53
2022-12-05T00:24:08.428Z,8.63
2022-12-05T00:26:36.191Z,8.63
2022-12-05T00:29:04.508Z,7.80
2022-12-05T00:31:32.431Z,10.60
2022-12-05T00:34:02.585Z,11.70
2022-12-05T00:36:33.618Z,11.78
2022-12-05T00:39:05.905Z,11.08
2022-12-05T00:41:33.667Z,12.47
2022-12-05T00:44:03.516Z,12.65
2022-12-05T00:46:33.454Z,11.48
2022-12-05T00:49:04.008Z,10.70
2022-12-05T00:51:39.114Z,9.25
2022-12-05T00:54:11.458Z,8.85
2022-12-05T00:56:39.810Z,7.97
2022-12-05T00:59:08.659Z,8.35
2022-12-05T01:01:40.645Z,8.80
2022-12-05T01:04:12.456Z,9.25
2022-12-05T01:06:41.453Z,12.82
2022-12-05T01:09:13.081Z,13.05
2022-12-05T01:11:41.826Z,15.58
2022-12-05T01:14:12.681Z,14.58
2022-12-05T01:16:43.492Z,14.83
2022-12-05T01:19:22.081Z,16.12
2022-12-05T01:21:50.615Z,15.60
2022-12-05T01:24:19.910Z,14.58
2022-12-05T01:26:48.284Z,15.43
2022-12-05T01:29:19.610Z,16.97
2022-12-05T01:31:48.131Z,15.60
2022-12-05T01:34:18.115Z,15.80
2022-12-05T01:36:45.912Z,13.48
2022-12-05T01:39:13.596Z,13.55
2022-12-05T01:41:49.347Z,12.58
2022-12-05T01:44:25.004Z,12.80
2022-12-05T01:46:53.991Z,11.63
2022-12-05T01:49:33.043Z,11.70
2022-12-05T01:52:20.895Z,11.57
2022-12-05T01:54:51.759Z,9.48
2022-12-05T01:57:19.426Z,9.08
2022-12-05T01:59:55.757Z,9.75
2022-12-05T02:02:24.013Z,9.98
2022-12-05T02:05:00.072Z,10.75
2022-12-05T02:07:28.518Z,12.00
2022-12-05T02:09:56.847Z,12.90
2022-12-05T02:12:25.447Z,15.45
2022-12-05T02:15:07.634Z,14.85
2022-12-05T02:18:14.482Z,15.75
2022-12-05T02:21:17.111Z,15.58
2022-12-05T02:24:16.646Z,14.80
2022-12-05T02:27:00.014Z,13.50
2022-12-05T02:30:00.924Z,11.25
2022-12-05T02:32:49.373Z,10.10
2022-12-05T02:35:42.203Z,8.85
2022-12-05T02:38:33.663Z,9.33
2022-12-05T02:41:06.679Z,8.50
2022-12-05T02:43:42.149Z,8.75
2022-12-05T02:46:14.633Z,7.40
2022-12-05T02:48:45.504Z,9.23
2022-12-05T02:51:17.866Z,8.55
2022-12-05T02:53:48.194Z,8.35
2022-12-05T02:56:16.333Z,7.40
2022-12-05T02:58:55.693Z,7.75
2022-12-05T03:01:27.676Z,8.45
2022-12-05T03:03:58.178Z,8.90
2022-12-05T03:06:42.595Z,8.35
2022-12-05T03:09:18.739Z,8.90
2022-12-05T03:11:54.844Z,9.70
2022-12-05T03:14:39.768Z,10.08
2022-12-05T03:17:11.843Z,9.35
2022-12-05T03:20:02.140Z,10.55
2022-12-05T03:22:49.806Z,9.68
2022-12-05T03:25:18.144Z,8.98
2022-12-05T03:28:07.885Z,7.92
2022-12-05T03:30:38.473Z,9.93
2022-12-05T03:33:26.492Z,9.53
2022-12-05T03:36:08.285Z,7.95
2022-12-05T03:38:57.841Z,8.28
2022-12-05T03:42:00.755Z,7.83
2022-12-05T03:44:51.829Z,8.00
2022-12-05T03:47:46.049Z,8.28
2022-12-05T03:50:27.229Z,7.80
2022-12-05T03:53:19.506Z,7.70
2022-12-05T03:55:38.840Z,8.20
2022-12-05T03:58:14.863Z,7.87
2022-12-05T04:00:46.081Z,8.55
2022-12-05T04:03:25.047Z,7.72
2022-12-05T04:05:59.610Z,7.12
2022-12-05T04:08:35.728Z,7.20
2022-12-05T04:11:07.594Z,7.78
2022-12-05T04:13:49.575Z,6.75
2022-12-05T04:16:47.508Z,6.08
2022-12-05T04:19:26.592Z,5.75
2022-12-05T04:21:56.959Z,6.17
2022-12-05T04:24:49.718Z,6.87
2022-12-05T04:27:38.980Z,6.95
2022-12-05T04:30:11.733Z,6.92
2022-12-05T04:33:04.766Z,6.95
2022-12-05T04:35:37.901Z,6.60
2022-12-05T04:38:16.902Z,7.40
2022-12-05T04:40:52.834Z,8.40
2022-12-05T04:43:22.925Z,8.45
2022-12-05T04:45:52.876Z,9.73
2022-12-05T04:48:24.035Z,10.72
2022-12-05T04:50:54.076Z,9.88
2022-12-05T04:53:26.138Z,9.03
2022-12-05T04:55:57.680Z,12.00
2022-12-05T04:58:27.903Z,11.57
2022-12-05T05:01:21.641Z,12.40
2022-12-05T05:04:00.789Z,11.40
2022-12-05T05:06:30.141Z,13.08
2022-12-05T05:08:58.579Z,11.28
2022-12-05T05:11:30.290Z,11.08
2022-12-05T05:13:59.627Z,11.25
2022-12-05T05:16:33.215Z,11.57
2022-12-05T05:19:03.698Z,10.65
2022-12-05T05:21:35.691Z,10.32
2022-12-05T05:24:04.758Z,11.73
2022-12-05T05:26:40.107Z,14.35
2022-12-05T05:29:09.369Z,17.27
2022-12-05T05:31:38.719Z,22.90
2022-12-05T05:34:09.853Z,22.80
2022-12-05T05:36:38.685Z,24.77
2022-12-05T05:39:11.730Z,26.93
2022-12-05T05:41:41.293Z,25.40
2022-12-05T05:44:09.291Z,26.40
2022-12-05T05:46:37.319Z,25.00
2022-12-05T05:49:07.135Z,23.60
2022-12-05T05:51:35.041Z,22.58
2022-12-05T05:54:03.011Z,21.35
2022-12-05T05:56:30.848Z,19.30
2022-12-05T05:59:02.826Z,19.95
2022-12-05T06:01:31.419Z,18.57
2022-12-05T06:03:59.249Z,18.25
2022-12-05T06:06:27.613Z,18.15
2022-12-05T06:08:55.290Z,18.65
2022-12-05T06:11:27.118Z,20.17
2022-12-05T06:13:57.188Z,19.77
2022-12-05T06:16:25.191Z,19.37
2022-12-05T06:18:54.079Z,18.10
2022-12-05T06:21:22.838Z,17.73
2022-12-05T06:23:50.954Z,13.95
2022-12-05T06:26:21.573Z,14.98
2022-12-05T06:28:49.266Z,13.48
2022-12-05T06:31:21.826Z,12.30
2022-12-05T06:33:49.611Z,12.70
2022-12-05T06:36:20.791Z,12.43
2022-12-05T06:38:48.798Z,13.85
2022-12-05T06:41:19.930Z,14.15
2022-12-05T06:43:48.965Z,15.45
2022-12-05T06:46:16.734Z,15.63
2022-12-05T06:48:44.808Z,14.38
2022-12-05T06:51:16.171Z,14.55
2022-12-05T06:53:44.652Z,14.40
2022-12-05T06:56:16.331Z,15.20
2022-12-05T06:58:47.633Z,17.73
2022-12-05T07:01:42.238Z,15.68
2022-12-05T07:04:19.764Z,18.80
2022-12-05T07:06:51.141Z,25.70
2022-12-05T07:09:24.972Z,16.45
2022-12-05T07:11:52.899Z,17.92
2022-12-05T07:16:51.175Z,21.37
2022-12-05T07:19:18.774Z,29.07
2022-12-05T07:21:46.574Z,29.60
2022-12-05T07:24:14.445Z,31.65
2022-12-05T07:26:42.200Z,28.35
2022-12-05T07:29:10.315Z,27.25
2022-12-05T07:31:38.265Z,26.85
2022-12-05T07:34:05.963Z,26.95
2022-12-05T07:36:34.663Z,30.00
2022-12-05T07:39:02.420Z,35.50
2022-12-05T07:41:33.221Z,37.70
2022-12-05T07:44:02.885Z,29.80
2022-12-05T07:46:30.622Z,32.42
2022-12-05T07:48:58.548Z,25.62
2022-12-05T07:51:26.293Z,24.12
2022-12-05T07:53:53.995Z,23.32
2022-12-05T07:56:22.392Z,22.25
2022-12-05T07:58:51.076Z,36.95
2022-12-05T08:01:22.924Z,41.40
2022-12-05T08:03:52.996Z,33.83
2022-12-05T08:06:24.593Z,51.35
2022-12-05T08:08:53.876Z,31.75
2022-12-05T08:11:30.982Z,28.50
2022-12-05T08:13:59.150Z,26.15
2022-12-05T08:16:30.017Z,23.05
2022-12-05T08:19:01.112Z,20.82
2022-12-05T08:21:29.308Z,20.08
2022-12-05T08:23:57.417Z,18.25
2022-12-05T08:26:29.701Z,19.90
2022-12-05T08:29:02.079Z,17.42
2022-12-05T08:31:34.175Z,19.10
2022-12-05T08:34:02.535Z,18.32
2022-12-05T08:36:31.345Z,16.52
2022-12-05T08:39:04.326Z,16.05
2022-12-05T08:41:33.459Z,18.55
2022-12-05T08:44:04.963Z,18.73
2022-12-05T08:46:35.692Z,19.62
2022-12-05T08:49:05.204Z,18.45
2022-12-05T08:51:33.355Z,17.92
2022-12-05T08:54:05.502Z,17.20
2022-12-05T08:56:33.740Z,16.37
2022-12-05T08:59:05.762Z,18.00
2022-12-05T09:01:32.951Z,31.80
2022-12-05T09:04:03.508Z,27.62
2022-12-05T09:06:32.609Z,28.55
2022-12-05T09:09:05.185Z,21.33
2022-12-05T09:11:37.270Z,21.17
2022-12-05T09:14:04.908Z,21.48
2022-12-05T09:16:39.253Z,17.37
2022-12-05T09:19:12.729Z,17.50
2022-12-05T09:21:41.633Z,16.15
2022-12-05T09:24:12.030Z,16.45
2022-12-05T09:26:41.052Z,14.38
2022-12-05T09:29:16.174Z,16.30
2022-12-05T09:31:41.809Z,22.30
2022-12-05T09:34:10.049Z,19.52
2022-12-05T09:36:38.031Z,19.30
2022-12-05T09:39:09.638Z,19.02
2022-12-05T09:42:19.370Z,15.28
2022-12-05T09:45:10.989Z,18.42
2022-12-05T09:48:09.496Z,18.12
2022-12-05T09:50:48.497Z,19.55
2022-12-05T09:53:30.471Z,19.85
2022-12-05T09:56:03.841Z,20.10
2022-12-05T09:58:54.189Z,17.62
2022-12-05T10:01:32.921Z,20.15
2022-12-05T10:04:34.583Z,20.70
2022-12-05T10:07:23.652Z,19.35
2022-12-05T10:09:59.739Z,22.10
2022-12-05T10:12:52.496Z,18.82
2022-12-05T10:15:54.427Z,20.32
2022-12-05T10:18:49.933Z,19.12
2022-12-05T10:22:01.400Z,20.15
2022-12-05T10:24:40.055Z,21.05
2022-12-05T10:27:12.432Z,22.82
2022-12-05T10:30:05.897Z,22.48
2022-12-05T10:32:39.167Z,23.30
2022-12-05T10:35:18.241Z,21.25
2022-12-05T10:37:53.206Z,18.65
2022-12-05T10:40:21.276Z,18.80
2022-12-05T10:42:50.643Z,18.17
2022-12-05T10:45:23.977Z,21.05
2022-12-05T10:47:57.209Z,19.98
2022-12-05T10:50:36.169Z,18.05
2022-12-05T10:53:06.488Z,14.95
2022-12-05T10:56:00.099Z,14.95
2022-12-05T10:58:24.157Z,13.48
2022-12-05T11:00:59.121Z,11.20
2022-12-05T11:03:41.924Z,11.00
2022-12-05T11:06:26.933Z,10.28
2022-12-05T11:09:14.706Z,9.78
2022-12-05T11:11:46.042Z,10.75
2022-12-05T11:14:26.456Z,10.32
2022-12-05T11:16:57.719Z,10.15
2022-12-05T11:19:33.347Z,8.83
2022-12-05T11:22:02.997Z,9.45
2022-12-05T11:24:34.630Z,10.50
2022-12-05T11:27:23.073Z,10.68
2022-12-05T11:30:15.984Z,11.80
2022-12-05T11:32:43.562Z,14.23
2022-12-05T11:35:26.025Z,14.23
2022-12-05T11:38:02.500Z,13.60
2022-12-05T11:40:54.074Z,13.03
2022-12-05T11:44:03.713Z,15.03
2022-12-05T11:46:45.598Z,13.32
2022-12-05T11:49:55.125Z,14.75
2022-12-05T11:53:12.992Z,15.32
2022-12-05T11:55:58.337Z,12.18
2022-12-05T11:58:54.423Z,13.93
2022-12-05T12:02:18.795Z,17.27
2022-12-05T12:05:13.000Z,17.48
2022-12-05T12:07:58.359Z,17.67
2022-12-05T12:10:57.482Z,15.23
2022-12-05T12:13:45.215Z,15.03
2022-12-05T12:16:36.668Z,17.52
2022-12-05T12:19:28.217Z,18.00
2022-12-05T12:22:30.445Z,16.80
2022-12-05T12:25:33.455Z,17.00
2022-12-05T12:28:21.816Z,18.52
2022-12-05T12:30:57.858Z,17.65
2022-12-05T12:33:46.213Z,18.95
2022-12-05T12:36:43.919Z,19.17
2022-12-05T12:39:22.585Z,18.98
2022-12-05T12:42:23.518Z,18.70
2022-12-05T12:45:26.154Z,17.52
2022-12-05T12:48:39.020Z,19.27
2022-12-05T12:51:11.755Z,21.77
2022-12-05T12:54:06.360Z,19.73
2022-12-05T12:57:10.649Z,24.65
2022-12-05T13:00:13.126Z,23.52
2022-12-05T13:02:51.064Z,23.15
2022-12-05T13:05:36.383Z,21.55
2022-12-05T13:08:35.153Z,18.80
2022-12-05T13:11:08.570Z,18.32
2022-12-05T13:13:43.793Z,17.15
2022-12-05T13:16:19.347Z,20.62
2022-12-05T13:18:47.111Z,18.55
2022-12-05T13:21:15.177Z,18.82
2022-12-05T13:23:49.916Z,19.20
2022-12-05T13:26:18.159Z,19.30
2022-12-05T13:28:56.965Z,19.02
2022-12-05T13:31:45.534Z,20.32
2022-12-05T13:34:40.389Z,24.02
2022-12-05T13:37:39.830Z,28.25
2022-12-05T13:40:51.260Z,37.73
2022-12-05T13:43:23.669Z,37.33
2022-12-05T13:46:09.126Z,33.08
2022-12-05T13:48:42.510Z,27.27
2022-12-05T13:51:16.150Z,25.52
2022-12-05T13:53:52.750Z,23.52
2022-12-05T13:56:28.105Z,21.30
2022-12-05T13:58:57.906Z,21.00
2022-12-05T14:01:50.356Z,19.98
2022-12-05T14:04:50.179Z,16.87
2022-12-05T14:07:41.408Z,16.02
2022-12-05T14:10:14.942Z,15.93
2022-12-05T14:12:53.794Z,17.30
2022-12-05T14:15:31.818Z,15.85
2022-12-05T14:18:30.368Z,16.27
2022-12-05T14:21:16.768Z,19.15
2022-12-05T14:24:25.326Z,20.50
2022-12-05T14:27:13.773Z,25.23
2022-12-05T14:30:30.143Z,25.25
2022-12-05T14:33:01.769Z,27.90
2022-12-05T14:35:45.670Z,29.18
2022-12-05T14:38:29.316Z,28.25
2022-12-05T14:41:13.074Z,24.60
2022-12-05T14:43:42.464Z,26.60
2022-12-05T14:46:25.534Z,25.88
2022-12-05T14:48:55.661Z,28.45
2022-12-05T14:51:38.095Z,31.37
2022-12-05T14:54:18.010Z,35.43
2022-12-05T14:57:08.727Z,38.15
2022-12-05T14:59:56.370Z,31.45
2022-12-05T15:02:38.411Z,32.42
2022-12-05T15:05:24.339Z,31.25
2022-12-05T15:07:56.905Z,34.38
2022-12-05T15:10:37.854Z,37.83
2022-12-05T15:13:20.314Z,38.75
2022-12-05T15:16:14.640Z,37.55
2022-12-05T15:18:57.235Z,36.83
2022-12-05T15:21:47.209Z,38.05
2022-12-05T15:24:21.213Z,39.92
2022-12-05T15:26:58.915Z,41.28
2022-12-05T15:29:32.001Z,51.68
2022-12-05T15:32:08.350Z,66.67
2022-12-05T15:34:43.486Z,69.47
2022-12-05T15:37:25.813Z,61.33
2022-12-05T15:40:13.739Z,56.50
2022-12-05T15:42:48.295Z,61.00
2022-12-05T15:45:29.044Z,47.73
2022-12-05T15:48:11.419Z,56.63
2022-12-05T15:50:47.444Z,72.20
2022-12-05T15:53:30.064Z,67.45
2022-12-05T15:56:23.810Z,67.20
2022-12-05T15:59:03.231Z,51.42
2022-12-05T16:01:37.310Z,45.25
2022-12-05T16:04:37.275Z,49.38
2022-12-05T16:07:09.513Z,54.88
2022-12-05T16:09:41.860Z,69.32
2022-12-05T16:12:27.512Z,58.13
2022-12-05T16:15:01.623Z,52.08
2022-12-05T16:17:40.703Z,46.68
2022-12-05T16:20:29.117Z,38.15
2022-12-05T16:23:05.909Z,36.58
2022-12-05T16:25:36.697Z,37.35
2022-12-05T16:28:16.182Z,39.98
2022-12-05T16:31:01.834Z,41.75
2022-12-05T16:33:32.068Z,49.53
2022-12-05T16:36:10.888Z,46.50
2022-12-05T16:38:40.483Z,48.42
2022-12-05T16:41:08.930Z,53.45
2022-12-05T16:43:42.208Z,48.28
2022-12-05T16:46:20.249Z,57.50
2022-12-05T16:49:10.419Z,51.98
2022-12-05T16:51:45.658Z,44.63
2022-12-05T16:54:15.048Z,38.95
2022-12-05T16:56:42.924Z,36.10
2022-12-05T16:59:16.258Z,34.18
2022-12-05T17:01:44.472Z,32.55
2022-12-05T17:04:12.460Z,31.62
2022-12-05T17:06:42.500Z,31.02
2022-12-05T17:09:10.508Z,39.90
2022-12-05T17:11:43.029Z,34.98
2022-12-05T17:14:16.276Z,33.48
2022-12-05T17:16:45.033Z,34.75
2022-12-05T17:19:13.737Z,34.53
2022-12-05T17:21:43.384Z,35.83
2022-12-05T17:24:18.759Z,37.60
2022-12-05T17:26:47.296Z,35.03
2022-12-05T17:29:14.970Z,33.28
2022-12-05T17:31:43.009Z,36.95
2022-12-05T17:34:18.186Z,36.90
2022-12-05T17:36:46.196Z,39.08
2022-12-05T17:39:13.983Z,42.00
2022-12-05T17:41:42.260Z,40.28
2022-12-05T17:44:14.238Z,41.85
2022-12-05T17:46:48.168Z,39.80
2022-12-05T17:49:25.634Z,42.60
2022-12-05T17:52:21.497Z,39.50
2022-12-05T17:54:39.625Z,38.92
2022-12-05T17:57:07.364Z,39.92
2022-12-05T17:59:35.654Z,39.60
2022-12-05T18:02:06.195Z,36.28
2022-12-05T18:04:34.396Z,38.55
2022-12-05T18:07:05.538Z,41.75
2022-12-05T18:09:35.384Z,41.23
2022-12-05T18:12:03.781Z,50.35
2022-12-05T18:14:33.478Z,52.23
2022-12-05T18:17:03.367Z,52.67
2022-12-05T18:19:31.428Z,47.60
2022-12-05T18:21:59.439Z,47.10
2022-12-05T18:24:28.375Z,46.68
2022-12-05T18:26:56.449Z,48.98
2022-12-05T18:29:24.982Z,52.35
2022-12-05T18:31:53.267Z,58.63
2022-12-05T18:34:21.576Z,64.12
2022-12-05T18:36:49.858Z,63.98
2022-12-05T18:39:18.307Z,67.53
2022-12-05T18:41:47.970Z,70.60
2022-12-05T18:44:19.141Z,66.85
2022-12-05T18:46:47.085Z,66.12
2022-12-05T18:49:15.229Z,62.78
2022-12-05T18:51:47.759Z,62.53
2022-12-05T18:54:17.658Z,60.00
2022-12-05T18:56:49.837Z,60.33
2022-12-05T18:59:20.627Z,61.08
2022-12-05T19:01:50.524Z,58.60
2022-12-05T19:04:21.058Z,60.67
2022-12-05T19:06:58.744Z,57.70
2022-12-05T19:09:30.445Z,58.48
2022-12-05T19:12:00.635Z,54.73
2022-12-05T19:14:32.099Z,51.48
2022-12-05T19:17:02.142Z,50.65
2022-12-05T19:19:30.689Z,48.02
2022-12-05T19:21:58.795Z,45.80
2022-12-05T19:24:27.890Z,44.25
2022-12-05T19:26:56.279Z,44.98
2022-12-05T19:29:24.337Z,43.50
2022-12-05T19:31:52.891Z,43.20
2022-12-05T19:34:22.014Z,40.45
2022-12-05T19:36:51.336Z,36.48
2022-12-05T19:39:26.722Z,37.42
2022-12-05T19:41:56.884Z,30.12
2022-12-05T19:44:26.625Z,30.30
2022-12-05T19:46:54.676Z,26.37
2022-12-05T19:49:23.178Z,25.92
2022-12-05T19:51:52.329Z,28.00
2022-12-05T19:54:22.094Z,28.52
2022-12-05T19:56:51.466Z,28.35
2022-12-05T19:59:19.656Z,29.10
2022-12-05T20:01:47.670Z,30.05
2022-12-05T20:04:16.917Z,31.23
2022-12-05T20:06:50.160Z,32.63
2022-12-05T20:09:21.748Z,32.73
2022-12-05T20:11:55.558Z,31.95
2022-12-05T20:14:25.124Z,32.08
2022-12-05T20:16:53.927Z,34.35
2022-12-05T20:19:23.729Z,35.63
2022-12-05T20:21:52.300Z,36.03
2022-12-05T20:24:20.236Z,35.00
2022-12-05T20:26:49.031Z,33.38
2022-12-05T20:29:16.670Z,31.23
2022-12-05T20:31:47.497Z,30.75
2022-12-05T20:34:17.202Z,32.60
2022-12-05T20:36:51.826Z,30.85
2022-12-05T20:39:20.144Z,26.80
2022-12-05T20:41:49.963Z,28.90
2022-12-05T20:44:20.928Z,26.50
2022-12-05T20:46:50.584Z,27.37
2022-12-05T20:49:20.128Z,27.40
2022-12-05T20:51:50.198Z,25.88
2022-12-05T20:54:27.782Z,25.90
2022-12-05T20:56:58.252Z,26.50
2022-12-05T20:59:25.910Z,27.00
2022-12-05T21:01:53.950Z,27.10
2022-12-05T21:04:21.835Z,27.50
2022-12-05T21:06:49.753Z,28.55
2022-12-05T21:09:25.191Z,30.45
2022-12-05T21:11:56.527Z,31.35
2022-12-05T21:14:24.809Z,33.45
2022-12-05T21:16:53.237Z,29.98
2022-12-05T21:19:21.137Z,27.42
2022-12-05T21:21:53.083Z,27.98
2022-12-05T21:24:22.783Z,30.20
2022-12-05T21:26:51.382Z,33.50
2022-12-05T21:29:19.466Z,36.28
2022-12-05T21:31:50.326Z,37.42
2022-12-05T21:34:21.062Z,35.17
2022-12-05T21:36:49.542Z,31.48
2022-12-05T21:39:17.338Z,34.70
2022-12-05T21:41:45.480Z,36.28
2022-12-05T21:44:16.654Z,31.77
2022-12-05T21:46:44.426Z,27.67
2022-12-05T21:49:12.695Z,28.05
2022-12-05T21:51:40.842Z,26.77
2022-12-05T21:54:08.910Z,25.90
2022-12-05T21:56:38.435Z,25.50
2022-12-05T21:59:06.200Z,25.68
2022-12-05T22:01:34.332Z,25.00
2022-12-05T22:04:02.927Z,26.05
2022-12-05T22:06:33.008Z,24.35
2022-12-05T22:09:01.092Z,26.80
2022-12-05T22:11:29.579Z,25.65
2022-12-05T22:13:57.822Z,26.80
2022-12-05T22:16:32.785Z,23.80
2022-12-05T22:18:57.008Z,23.25
2022-12-05T22:21:26.580Z,21.42
2022-12-05T22:23:54.427Z,20.70
2022-12-05T22:26:25.764Z,19.65
2022-12-05T22:28:56.713Z,20.15
2022-12-05T22:31:24.694Z,20.82
2022-12-05T22:33:52.640Z,18.98
2022-12-05T22:36:21.051Z,19.17
2022-12-05T22:38:49.421Z,20.43
2022-12-05T22:41:21.427Z,20.97
2022-12-05T22:43:56.335Z,21.60
2022-12-05T22:48:54.354Z,21.10
2022-12-05T22:51:23.145Z,21.27
2022-12-05T22:53:52.575Z,19.50
2022-12-05T22:56:22.982Z,18.65
2022-12-05T22:58:54.716Z,16.85
2022-12-05T23:01:32.265Z,17.77
2022-12-05T23:04:08.860Z,17.73
2022-12-05T23:06:38.348Z,17.70
2022-12-05T23:09:09.171Z,17.62
2022-12-05T23:11:37.809Z,17.75
2022-12-05T23:14:07.731Z,18.87
2022-12-05T23:16:36.940Z,18.02
2022-12-05T23:19:05.844Z,19.45
2022-12-05T23:21:39.225Z,20.15
2022-12-05T23:24:10.971Z,19.35
2022-12-05T23:26:44.945Z,19.62
2022-12-05T23:29:14.066Z,18.20
2022-12-05T23:31:43.206Z,20.08
2022-12-05T23:34:11.437Z,19.40
2022-12-05T23:36:39.540Z,18.70
2022-12-05T23:39:07.174Z,16.75
2022-12-05T23:41:34.925Z,19.02
2022-12-05T23:44:03.437Z,15.88
2022-12-05T23:46:31.255Z,14.85
2022-12-05T23:48:58.983Z,15.00
2022-12-05T23:51:29.769Z,13.93
2022-12-05T23:54:01.100Z,13.88
2022-12-05T23:56:32.858Z,14.87
2022-12-05T23:59:03.368Z,13.88
